Terminal Aerodrome Forecast
Issued by NWS Tampa Bay Area, FL

Home | Current Version | Previous Version | Text Only | Print | Product List | Glossary On
Versions: 1 2 3 4 5 6 7 8 9 10 11 12 13 14 15 16
000
FTUS42 KTBW 211731
TAFFMY
TAF
KFMY 211731Z 2118/2218 18007KT P6SM FEW025 SCT080 BKN250
     FM212100 23006KT P6SM SCT035 SCT100 BKN250
     FM220000 VRB03KT P6SM SCT100 BKN250
     FM220700 VRB03KT 4SM BR SCT005 SCT150
      TEMPO 2209/2213 1SM BR BKN005
     FM221500 13004KT P6SM SCT015 SCT150=

USA.gov is the U.S. government's official web portal to all federal, state and local government web resources and services.